sensor_id;sensor_type;location;lat;lon;timestamp;P1;durP1;ratioP1;P2;durP2;ratioP2
64915;SDS011;51427;-27.442;153.014;2023-10-31T00:02:23;6.95;;;4.22;;
64915;SDS011;51427;-27.442;153.014;2023-10-31T00:04:50;7.18;;;3.70;;
64915;SDS011;51427;-27.442;153.014;2023-10-31T00:07:17;7.07;;;3.90;;
64915;SDS011;51427;-27.442;153.014;2023-10-31T00:09:45;6.70;;;4.03;;
64915;SDS011;51427;-27.442;153.014;2023-10-31T00:12:12;5.72;;;3.60;;
64915;SDS011;51427;-27.442;153.014;2023-10-31T00:14:39;4.90;;;3.70;;
64915;SDS011;51427;-27.442;153.014;2023-10-31T00:17:06;6.18;;;4.18;;
64915;SDS011;51427;-27.442;153.014;2023-10-31T00:19:33;5.60;;;4.20;;
64915;SDS011;51427;-27.442;153.014;2023-10-31T00:22:01;5.50;;;4.15;;
64915;SDS011;51427;-27.442;153.014;2023-10-31T00:24:28;6.55;;;3.75;;
64915;SDS011;51427;-27.442;153.014;2023-10-31T00:26:57;4.20;;;3.80;;
64915;SDS011;51427;-27.442;153.014;2023-10-31T00:29:25;6.22;;;3.83;;
64915;SDS011;51427;-27.442;153.014;2023-10-31T00:31:52;5.40;;;3.88;;
64915;SDS011;51427;-27.442;153.014;2023-10-31T00:34:19;6.88;;;3.90;;
64915;SDS011;51427;-27.442;153.014;2023-10-31T00:36:47;4.65;;;3.42;;
64915;SDS011;51427;-27.442;153.014;2023-10-31T00:39:14;5.60;;;3.40;;
64915;SDS011;51427;-27.442;153.014;2023-10-31T00:41:44;5.10;;;3.70;;
64915;SDS011;51427;-27.442;153.014;2023-10-31T00:44:12;6.35;;;3.72;;
64915;SDS011;51427;-27.442;153.014;2023-10-31T00:46:39;5.47;;;3.78;;
64915;SDS011;51427;-27.442;153.014;2023-10-31T00:49:07;4.28;;;3.60;;
64915;SDS011;51427;-27.442;153.014;2023-10-31T00:51:34;5.90;;;3.63;;
64915;SDS011;51427;-27.442;153.014;2023-10-31T00:54:01;6.07;;;3.65;;
64915;SDS011;51427;-27.442;153.014;2023-10-31T00:56:30;8.27;;;3.80;;
64915;SDS011;51427;-27.442;153.014;2023-10-31T00:58:57;7.43;;;3.90;;
64915;SDS011;51427;-27.442;153.014;2023-10-31T01:01:24;4.75;;;4.00;;
64915;SDS011;51427;-27.442;153.014;2023-10-31T01:03:51;7.57;;;4.00;;
64915;SDS011;51427;-27.442;153.014;2023-10-31T01:06:18;6.10;;;3.80;;
64915;SDS011;51427;-27.442;153.014;2023-10-31T01:08:45;5.20;;;3.88;;
64915;SDS011;51427;-27.442;153.014;2023-10-31T01:11:13;6.60;;;3.97;;
64915;SDS011;51427;-27.442;153.014;2023-10-31T01:13:40;4.55;;;3.80;;
64915;SDS011;51427;-27.442;153.014;2023-10-31T01:16:07;5.63;;;3.92;;
64915;SDS011;51427;-27.442;153.014;2023-10-31T01:21:25;4.57;;;3.38;;
64915;SDS011;51427;-27.442;153.014;2023-10-31T01:23:52;7.10;;;4.20;;
64915;SDS011;51427;-27.442;153.014;2023-10-31T01:26:19;4.05;;;3.22;;
64915;SDS011;51427;-27.442;153.014;2023-10-31T01:28:46;7.00;;;3.38;;
64915;SDS011;51427;-27.442;153.014;2023-10-31T01:31:14;5.43;;;3.40;;
64915;SDS011;51427;-27.442;153.014;2023-10-31T01:33:41;8.93;;;3.80;;
64915;SDS011;51427;-27.442;153.014;2023-10-31T01:36:08;10.52;;;4.03;;
64915;SDS011;51427;-27.442;153.014;2023-10-31T01:38:38;5.18;;;3.60;;
64915;SDS011;51427;-27.442;153.014;2023-10-31T01:41:05;5.75;;;3.67;;
64915;SDS011;51427;-27.442;153.014;2023-10-31T01:43:36;8.00;;;3.50;;
64915;SDS011;51427;-27.442;153.014;2023-10-31T01:46:04;6.72;;;3.70;;
64915;SDS011;51427;-27.442;153.014;2023-10-31T01:48:32;7.55;;;4.15;;
64915;SDS011;51427;-27.442;153.014;2023-10-31T01:51:01;8.65;;;3.72;;
64915;SDS011;51427;-27.442;153.014;2023-10-31T01:53:31;8.73;;;4.07;;
64915;SDS011;51427;-27.442;153.014;2023-10-31T01:56:00;7.55;;;3.60;;
64915;SDS011;51427;-27.442;153.014;2023-10-31T01:58:32;9.05;;;3.70;;
64915;SDS011;51427;-27.442;153.014;2023-10-31T02:01:03;6.70;;;3.45;;
64915;SDS011;51427;-27.442;153.014;2023-10-31T02:03:32;7.95;;;3.50;;
64915;SDS011;51427;-27.442;153.014;2023-10-31T02:05:59;7.10;;;3.33;;
64915;SDS011;51427;-27.442;153.014;2023-10-31T02:08:26;7.90;;;3.83;;
64915;SDS011;51427;-27.442;153.014;2023-10-31T02:10:54;11.90;;;3.67;;
64915;SDS011;51427;-27.442;153.014;2023-10-31T02:13:21;7.70;;;3.53;;
64915;SDS011;51427;-27.442;153.014;2023-10-31T02:15:49;6.63;;;3.40;;
64915;SDS011;51427;-27.442;153.014;2023-10-31T02:18:16;7.13;;;3.35;;
64915;SDS011;51427;-27.442;153.014;2023-10-31T02:20:44;5.45;;;3.47;;
64915;SDS011;51427;-27.442;153.014;2023-10-31T02:23:11;9.10;;;3.88;;
64915;SDS011;51427;-27.442;153.014;2023-10-31T02:25:38;7.38;;;3.65;;
64915;SDS011;51427;-27.442;153.014;2023-10-31T02:28:05;8.05;;;3.60;;
64915;SDS011;51427;-27.442;153.014;2023-10-31T02:33:27;6.40;;;3.45;;
64915;SDS011;51427;-27.442;153.014;2023-10-31T02:35:54;5.75;;;3.72;;
64915;SDS011;51427;-27.442;153.014;2023-10-31T02:38:21;6.88;;;3.15;;
64915;SDS011;51427;-27.442;153.014;2023-10-31T02:40:48;6.95;;;3.28;;
64915;SDS011;51427;-27.442;153.014;2023-10-31T02:43:16;7.25;;;3.08;;
64915;SDS011;51427;-27.442;153.014;2023-10-31T02:45:43;8.20;;;3.30;;
64915;SDS011;51427;-27.442;153.014;2023-10-31T02:48:10;5.90;;;3.30;;
64915;SDS011;51427;-27.442;153.014;2023-10-31T02:50:37;5.75;;;3.03;;
64915;SDS011;51427;-27.442;153.014;2023-10-31T02:53:05;6.88;;;3.10;;
64915;SDS011;51427;-27.442;153.014;2023-10-31T02:58:27;8.40;;;3.37;;
64915;SDS011;51427;-27.442;153.014;2023-10-31T03:00:54;6.10;;;3.00;;
64915;SDS011;51427;-27.442;153.014;2023-10-31T03:03:21;6.50;;;3.08;;
64915;SDS011;51427;-27.442;153.014;2023-10-31T03:05:48;9.10;;;3.10;;
64915;SDS011;51427;-27.442;153.014;2023-10-31T03:08:15;8.45;;;3.30;;
64915;SDS011;51427;-27.442;153.014;2023-10-31T03:10:47;6.78;;;3.35;;
64915;SDS011;51427;-27.442;153.014;2023-10-31T03:13:18;6.38;;;2.92;;
64915;SDS011;51427;-27.442;153.014;2023-10-31T03:15:45;6.30;;;3.22;;
64915;SDS011;51427;-27.442;153.014;2023-10-31T03:18:13;8.25;;;3.20;;
64915;SDS011;51427;-27.442;153.014;2023-10-31T03:20:43;8.43;;;3.40;;
64915;SDS011;51427;-27.442;153.014;2023-10-31T03:23:13;8.50;;;3.65;;
64915;SDS011;51427;-27.442;153.014;2023-10-31T03:25:41;6.72;;;2.92;;
64915;SDS011;51427;-27.442;153.014;2023-10-31T03:28:17;5.22;;;3.28;;
64915;SDS011;51427;-27.442;153.014;2023-10-31T03:30:46;6.63;;;3.47;;
64915;SDS011;51427;-27.442;153.014;2023-10-31T03:33:14;8.40;;;2.53;;
64915;SDS011;51427;-27.442;153.014;2023-10-31T03:35:45;10.45;;;3.65;;
64915;SDS011;51427;-27.442;153.014;2023-10-31T03:38:12;5.57;;;3.25;;
64915;SDS011;51427;-27.442;153.014;2023-10-31T03:40:39;12.57;;;3.70;;
64915;SDS011;51427;-27.442;153.014;2023-10-31T03:43:07;11.07;;;3.90;;
64915;SDS011;51427;-27.442;153.014;2023-10-31T03:45:34;10.63;;;3.60;;
64915;SDS011;51427;-27.442;153.014;2023-10-31T03:48:01;10.98;;;3.72;;
64915;SDS011;51427;-27.442;153.014;2023-10-31T03:50:29;7.47;;;3.50;;
64915;SDS011;51427;-27.442;153.014;2023-10-31T03:52:56;11.73;;;3.92;;
64915;SDS011;51427;-27.442;153.014;2023-10-31T03:55:23;7.32;;;3.47;;
64915;SDS011;51427;-27.442;153.014;2023-10-31T03:57:50;8.50;;;3.35;;
64915;SDS011;51427;-27.442;153.014;2023-10-31T04:00:18;9.25;;;3.53;;
64915;SDS011;51427;-27.442;153.014;2023-10-31T04:02:45;9.93;;;3.38;;
64915;SDS011;51427;-27.442;153.014;2023-10-31T04:05:12;8.10;;;3.30;;
64915;SDS011;51427;-27.442;153.014;2023-10-31T04:07:39;10.48;;;3.65;;
64915;SDS011;51427;-27.442;153.014;2023-10-31T04:10:07;12.75;;;3.65;;
64915;SDS011;51427;-27.442;153.014;2023-10-31T04:12:34;10.88;;;3.53;;
64915;SDS011;51427;-27.442;153.014;2023-10-31T04:15:02;9.02;;;3.15;;
64915;SDS011;51427;-27.442;153.014;2023-10-31T04:17:29;7.65;;;3.60;;
64915;SDS011;51427;-27.442;153.014;2023-10-31T04:19:57;10.57;;;3.67;;
64915;SDS011;51427;-27.442;153.014;2023-10-31T04:22:24;16.23;;;3.47;;
64915;SDS011;51427;-27.442;153.014;2023-10-31T04:24:51;6.28;;;3.00;;
64915;SDS011;51427;-27.442;153.014;2023-10-31T04:27:18;10.90;;;3.58;;
64915;SDS011;51427;-27.442;153.014;2023-10-31T04:29:46;9.80;;;3.28;;
64915;SDS011;51427;-27.442;153.014;2023-10-31T04:32:13;6.72;;;3.00;;
64915;SDS011;51427;-27.442;153.014;2023-10-31T04:34:40;9.38;;;3.20;;
64915;SDS011;51427;-27.442;153.014;2023-10-31T04:37:08;10.18;;;3.08;;
64915;SDS011;51427;-27.442;153.014;2023-10-31T04:39:35;8.48;;;3.00;;
64915;SDS011;51427;-27.442;153.014;2023-10-31T04:42:02;14.02;;;3.97;;
64915;SDS011;51427;-27.442;153.014;2023-10-31T04:44:30;9.30;;;3.05;;
64915;SDS011;51427;-27.442;153.014;2023-10-31T04:46:57;10.52;;;3.20;;
64915;SDS011;51427;-27.442;153.014;2023-10-31T04:49:24;8.23;;;3.25;;
64915;SDS011;51427;-27.442;153.014;2023-10-31T04:51:51;10.73;;;3.60;;
64915;SDS011;51427;-27.442;153.014;2023-10-31T04:54:18;10.90;;;3.13;;
64915;SDS011;51427;-27.442;153.014;2023-10-31T04:56:47;10.60;;;3.22;;
64915;SDS011;51427;-27.442;153.014;2023-10-31T04:59:14;4.97;;;2.30;;
64915;SDS011;51427;-27.442;153.014;2023-10-31T05:01:41;10.32;;;3.30;;
64915;SDS011;51427;-27.442;153.014;2023-10-31T05:04:14;10.60;;;3.65;;
64915;SDS011;51427;-27.442;153.014;2023-10-31T05:06:42;11.32;;;3.65;;
64915;SDS011;51427;-27.442;153.014;2023-10-31T05:09:10;10.95;;;3.10;;
64915;SDS011;51427;-27.442;153.014;2023-10-31T05:11:37;8.27;;;3.17;;
64915;SDS011;51427;-27.442;153.014;2023-10-31T05:14:04;7.72;;;3.13;;
64915;SDS011;51427;-27.442;153.014;2023-10-31T05:16:50;8.13;;;2.97;;
64915;SDS011;51427;-27.442;153.014;2023-10-31T05:19:18;9.52;;;3.17;;
64915;SDS011;51427;-27.442;153.014;2023-10-31T05:21:45;6.32;;;3.35;;
64915;SDS011;51427;-27.442;153.014;2023-10-31T05:24:12;8.35;;;3.08;;
64915;SDS011;51427;-27.442;153.014;2023-10-31T05:26:40;8.48;;;3.53;;
64915;SDS011;51427;-27.442;153.014;2023-10-31T05:29:08;8.27;;;3.60;;
64915;SDS011;51427;-27.442;153.014;2023-10-31T05:31:36;12.02;;;3.17;;
64915;SDS011;51427;-27.442;153.014;2023-10-31T05:34:03;12.05;;;3.58;;
64915;SDS011;51427;-27.442;153.014;2023-10-31T05:36:31;8.85;;;3.25;;
64915;SDS011;51427;-27.442;153.014;2023-10-31T05:38:58;10.45;;;3.38;;
64915;SDS011;51427;-27.442;153.014;2023-10-31T05:44:12;12.73;;;3.30;;
64915;SDS011;51427;-27.442;153.014;2023-10-31T05:46:40;10.75;;;3.53;;
64915;SDS011;51427;-27.442;153.014;2023-10-31T05:49:07;7.70;;;3.20;;
64915;SDS011;51427;-27.442;153.014;2023-10-31T05:51:35;10.70;;;3.05;;
64915;SDS011;51427;-27.442;153.014;2023-10-31T05:54:02;9.50;;;3.30;;
64915;SDS011;51427;-27.442;153.014;2023-10-31T05:56:30;9.60;;;3.28;;
64915;SDS011;51427;-27.442;153.014;2023-10-31T05:58:57;14.25;;;3.50;;
64915;SDS011;51427;-27.442;153.014;2023-10-31T06:01:24;8.20;;;3.55;;
64915;SDS011;51427;-27.442;153.014;2023-10-31T06:03:51;7.95;;;3.30;;
64915;SDS011;51427;-27.442;153.014;2023-10-31T06:06:30;10.80;;;3.75;;
64915;SDS011;51427;-27.442;153.014;2023-10-31T06:09:16;9.93;;;3.30;;
64915;SDS011;51427;-27.442;153.014;2023-10-31T06:11:43;7.00;;;2.97;;
64915;SDS011;51427;-27.442;153.014;2023-10-31T06:14:11;10.13;;;3.20;;
64915;SDS011;51427;-27.442;153.014;2023-10-31T06:16:41;9.48;;;3.20;;
64915;SDS011;51427;-27.442;153.014;2023-10-31T06:19:09;11.50;;;3.67;;
64915;SDS011;51427;-27.442;153.014;2023-10-31T06:21:37;8.63;;;3.33;;
64915;SDS011;51427;-27.442;153.014;2023-10-31T06:24:04;7.65;;;3.33;;
64915;SDS011;51427;-27.442;153.014;2023-10-31T06:26:32;11.02;;;3.42;;
64915;SDS011;51427;-27.442;153.014;2023-10-31T06:28:59;10.43;;;3.20;;
64915;SDS011;51427;-27.442;153.014;2023-10-31T06:31:26;7.18;;;3.13;;
64915;SDS011;51427;-27.442;153.014;2023-10-31T06:33:53;12.65;;;3.65;;
64915;SDS011;51427;-27.442;153.014;2023-10-31T06:36:20;8.98;;;3.70;;
64915;SDS011;51427;-27.442;153.014;2023-10-31T06:38:48;10.10;;;3.70;;
64915;SDS011;51427;-27.442;153.014;2023-10-31T06:41:15;12.02;;;3.40;;
64915;SDS011;51427;-27.442;153.014;2023-10-31T06:43:42;9.27;;;3.22;;
64915;SDS011;51427;-27.442;153.014;2023-10-31T06:46:09;10.43;;;3.88;;
64915;SDS011;51427;-27.442;153.014;2023-10-31T06:48:36;9.77;;;3.90;;
64915;SDS011;51427;-27.442;153.014;2023-10-31T06:51:04;7.70;;;3.58;;
64915;SDS011;51427;-27.442;153.014;2023-10-31T06:53:31;8.90;;;3.58;;
64915;SDS011;51427;-27.442;153.014;2023-10-31T06:55:58;11.50;;;3.50;;
64915;SDS011;51427;-27.442;153.014;2023-10-31T06:58:25;10.38;;;3.47;;
64915;SDS011;51427;-27.442;153.014;2023-10-31T07:00:52;7.32;;;3.78;;
64915;SDS011;51427;-27.442;153.014;2023-10-31T07:03:20;8.07;;;3.88;;
64915;SDS011;51427;-27.442;153.014;2023-10-31T07:05:48;12.45;;;3.88;;
64915;SDS011;51427;-27.442;153.014;2023-10-31T07:08:15;11.50;;;4.05;;
64915;SDS011;51427;-27.442;153.014;2023-10-31T07:10:42;11.32;;;3.83;;
64915;SDS011;51427;-27.442;153.014;2023-10-31T07:16:12;13.93;;;4.43;;
64915;SDS011;51427;-27.442;153.014;2023-10-31T07:19:33;10.02;;;3.88;;
64915;SDS011;51427;-27.442;153.014;2023-10-31T07:22:00;8.40;;;3.67;;
64915;SDS011;51427;-27.442;153.014;2023-10-31T07:24:27;8.30;;;3.92;;
64915;SDS011;51427;-27.442;153.014;2023-10-31T07:26:54;9.77;;;3.65;;
64915;SDS011;51427;-27.442;153.014;2023-10-31T07:29:21;8.45;;;4.05;;
64915;SDS011;51427;-27.442;153.014;2023-10-31T07:31:55;8.48;;;3.83;;
64915;SDS011;51427;-27.442;153.014;2023-10-31T07:34:22;8.38;;;4.03;;
64915;SDS011;51427;-27.442;153.014;2023-10-31T07:36:49;10.75;;;3.88;;
64915;SDS011;51427;-27.442;153.014;2023-10-31T07:39:16;9.25;;;4.05;;
64915;SDS011;51427;-27.442;153.014;2023-10-31T07:41:43;8.13;;;3.63;;
64915;SDS011;51427;-27.442;153.014;2023-10-31T07:44:11;9.50;;;4.07;;
64915;SDS011;51427;-27.442;153.014;2023-10-31T07:46:38;11.15;;;4.30;;
64915;SDS011;51427;-27.442;153.014;2023-10-31T07:49:06;10.82;;;4.07;;
64915;SDS011;51427;-27.442;153.014;2023-10-31T07:51:33;10.55;;;4.30;;
64915;SDS011;51427;-27.442;153.014;2023-10-31T07:54:00;13.02;;;4.30;;
64915;SDS011;51427;-27.442;153.014;2023-10-31T07:56:27;12.18;;;3.60;;
64915;SDS011;51427;-27.442;153.014;2023-10-31T07:58:55;9.25;;;3.97;;
64915;SDS011;51427;-27.442;153.014;2023-10-31T08:04:20;7.72;;;4.10;;
64915;SDS011;51427;-27.442;153.014;2023-10-31T08:06:47;13.52;;;4.68;;
64915;SDS011;51427;-27.442;153.014;2023-10-31T08:09:14;9.00;;;4.22;;
64915;SDS011;51427;-27.442;153.014;2023-10-31T08:11:42;8.98;;;4.35;;
64915;SDS011;51427;-27.442;153.014;2023-10-31T08:14:09;8.75;;;4.68;;
64915;SDS011;51427;-27.442;153.014;2023-10-31T08:16:36;11.48;;;4.32;;
64915;SDS011;51427;-27.442;153.014;2023-10-31T08:19:04;14.25;;;4.53;;
64915;SDS011;51427;-27.442;153.014;2023-10-31T08:21:40;12.32;;;5.10;;
64915;SDS011;51427;-27.442;153.014;2023-10-31T08:24:10;16.15;;;5.10;;
64915;SDS011;51427;-27.442;153.014;2023-10-31T08:26:39;14.48;;;5.28;;
64915;SDS011;51427;-27.442;153.014;2023-10-31T08:29:06;15.00;;;4.82;;
64915;SDS011;51427;-27.442;153.014;2023-10-31T08:34:55;13.18;;;5.13;;
64915;SDS011;51427;-27.442;153.014;2023-10-31T08:37:23;13.35;;;5.20;;
64915;SDS011;51427;-27.442;153.014;2023-10-31T08:39:50;13.80;;;5.28;;
64915;SDS011;51427;-27.442;153.014;2023-10-31T08:42:17;13.50;;;5.22;;
64915;SDS011;51427;-27.442;153.014;2023-10-31T08:44:45;14.32;;;5.30;;
64915;SDS011;51427;-27.442;153.014;2023-10-31T08:47:12;12.50;;;5.25;;
64915;SDS011;51427;-27.442;153.014;2023-10-31T08:49:40;12.27;;;5.32;;
64915;SDS011;51427;-27.442;153.014;2023-10-31T08:52:07;17.60;;;6.00;;
64915;SDS011;51427;-27.442;153.014;2023-10-31T08:54:34;10.40;;;5.35;;
64915;SDS011;51427;-27.442;153.014;2023-10-31T08:57:01;13.35;;;5.15;;
64915;SDS011;51427;-27.442;153.014;2023-10-31T08:59:28;12.23;;;5.03;;
64915;SDS011;51427;-27.442;153.014;2023-10-31T09:01:56;13.07;;;5.75;;
64915;SDS011;51427;-27.442;153.014;2023-10-31T09:04:23;13.70;;;5.85;;
64915;SDS011;51427;-27.442;153.014;2023-10-31T09:06:50;13.75;;;6.13;;
64915;SDS011;51427;-27.442;153.014;2023-10-31T09:09:17;16.02;;;5.68;;
64915;SDS011;51427;-27.442;153.014;2023-10-31T09:11:45;14.75;;;6.10;;
64915;SDS011;51427;-27.442;153.014;2023-10-31T09:14:12;9.82;;;5.43;;
64915;SDS011;51427;-27.442;153.014;2023-10-31T09:16:39;12.10;;;4.82;;
64915;SDS011;51427;-27.442;153.014;2023-10-31T09:19:06;13.23;;;5.15;;
64915;SDS011;51427;-27.442;153.014;2023-10-31T09:21:33;16.67;;;5.65;;
64915;SDS011;51427;-27.442;153.014;2023-10-31T09:24:01;14.93;;;5.75;;
64915;SDS011;51427;-27.442;153.014;2023-10-31T09:26:29;13.65;;;5.20;;
64915;SDS011;51427;-27.442;153.014;2023-10-31T09:28:56;18.80;;;5.90;;
64915;SDS011;51427;-27.442;153.014;2023-10-31T09:31:23;20.45;;;5.93;;
64915;SDS011;51427;-27.442;153.014;2023-10-31T09:33:50;16.13;;;4.93;;
64915;SDS011;51427;-27.442;153.014;2023-10-31T09:36:19;15.57;;;5.53;;
64915;SDS011;51427;-27.442;153.014;2023-10-31T09:38:46;15.32;;;5.53;;
64915;SDS011;51427;-27.442;153.014;2023-10-31T09:41:13;18.25;;;5.57;;
64915;SDS011;51427;-27.442;153.014;2023-10-31T09:43:41;14.25;;;5.65;;
64915;SDS011;51427;-27.442;153.014;2023-10-31T09:46:08;16.30;;;5.05;;
64915;SDS011;51427;-27.442;153.014;2023-10-31T09:48:36;12.48;;;5.28;;
64915;SDS011;51427;-27.442;153.014;2023-10-31T09:51:04;15.02;;;5.60;;
64915;SDS011;51427;-27.442;153.014;2023-10-31T09:53:33;22.50;;;5.68;;
64915;SDS011;51427;-27.442;153.014;2023-10-31T09:56:06;18.00;;;5.60;;
64915;SDS011;51427;-27.442;153.014;2023-10-31T09:58:34;19.13;;;5.78;;
64915;SDS011;51427;-27.442;153.014;2023-10-31T10:01:01;15.77;;;5.70;;
64915;SDS011;51427;-27.442;153.014;2023-10-31T10:03:29;13.07;;;5.35;;
64915;SDS011;51427;-27.442;153.014;2023-10-31T10:05:56;19.85;;;5.68;;
64915;SDS011;51427;-27.442;153.014;2023-10-31T10:08:24;22.80;;;6.00;;
64915;SDS011;51427;-27.442;153.014;2023-10-31T10:10:51;15.50;;;5.82;;
64915;SDS011;51427;-27.442;153.014;2023-10-31T10:13:19;16.17;;;5.82;;
64915;SDS011;51427;-27.442;153.014;2023-10-31T10:15:47;18.73;;;6.05;;
64915;SDS011;51427;-27.442;153.014;2023-10-31T10:18:33;15.23;;;6.03;;
64915;SDS011;51427;-27.442;153.014;2023-10-31T10:21:04;18.95;;;5.63;;
64915;SDS011;51427;-27.442;153.014;2023-10-31T10:23:32;16.20;;;5.32;;
64915;SDS011;51427;-27.442;153.014;2023-10-31T10:26:00;16.20;;;6.28;;
64915;SDS011;51427;-27.442;153.014;2023-10-31T10:28:28;16.52;;;5.50;;
64915;SDS011;51427;-27.442;153.014;2023-10-31T10:30:55;25.13;;;6.00;;
64915;SDS011;51427;-27.442;153.014;2023-10-31T10:33:22;18.40;;;5.95;;
64915;SDS011;51427;-27.442;153.014;2023-10-31T10:35:52;17.42;;;5.85;;
64915;SDS011;51427;-27.442;153.014;2023-10-31T10:38:22;17.17;;;5.82;;
64915;SDS011;51427;-27.442;153.014;2023-10-31T10:40:50;12.38;;;6.10;;
64915;SDS011;51427;-27.442;153.014;2023-10-31T10:43:23;19.15;;;6.13;;
64915;SDS011;51427;-27.442;153.014;2023-10-31T10:45:57;18.20;;;5.55;;
64915;SDS011;51427;-27.442;153.014;2023-10-31T10:48:25;18.42;;;6.38;;
64915;SDS011;51427;-27.442;153.014;2023-10-31T10:51:04;13.75;;;5.65;;
64915;SDS011;51427;-27.442;153.014;2023-10-31T10:53:57;21.67;;;6.82;;
64915;SDS011;51427;-27.442;153.014;2023-10-31T10:56:34;17.73;;;5.88;;
64915;SDS011;51427;-27.442;153.014;2023-10-31T10:59:20;20.15;;;6.05;;
64915;SDS011;51427;-27.442;153.014;2023-10-31T11:01:50;16.83;;;5.67;;
64915;SDS011;51427;-27.442;153.014;2023-10-31T11:04:19;20.50;;;6.43;;
64915;SDS011;51427;-27.442;153.014;2023-10-31T11:06:47;15.80;;;6.18;;
64915;SDS011;51427;-27.442;153.014;2023-10-31T11:09:15;14.25;;;5.60;;
64915;SDS011;51427;-27.442;153.014;2023-10-31T11:11:42;16.05;;;6.13;;
64915;SDS011;51427;-27.442;153.014;2023-10-31T11:14:15;14.77;;;5.75;;
64915;SDS011;51427;-27.442;153.014;2023-10-31T11:16:44;18.00;;;6.35;;
64915;SDS011;51427;-27.442;153.014;2023-10-31T11:19:17;15.63;;;5.40;;
64915;SDS011;51427;-27.442;153.014;2023-10-31T11:22:03;17.25;;;7.10;;
64915;SDS011;51427;-27.442;153.014;2023-10-31T11:24:32;15.55;;;6.18;;
64915;SDS011;51427;-27.442;153.014;2023-10-31T11:27:04;18.08;;;6.45;;
64915;SDS011;51427;-27.442;153.014;2023-10-31T11:29:33;15.40;;;6.38;;
64915;SDS011;51427;-27.442;153.014;2023-10-31T11:32:02;16.50;;;5.68;;
64915;SDS011;51427;-27.442;153.014;2023-10-31T11:34:31;21.23;;;6.38;;
64915;SDS011;51427;-27.442;153.014;2023-10-31T11:37:18;18.35;;;6.30;;
64915;SDS011;51427;-27.442;153.014;2023-10-31T11:42:58;17.00;;;5.97;;
64915;SDS011;51427;-27.442;153.014;2023-10-31T11:45:41;16.13;;;5.57;;
64915;SDS011;51427;-27.442;153.014;2023-10-31T11:48:13;15.02;;;5.55;;
64915;SDS011;51427;-27.442;153.014;2023-10-31T11:50:41;15.88;;;5.93;;
64915;SDS011;51427;-27.442;153.014;2023-10-31T11:53:10;22.27;;;6.45;;
64915;SDS011;51427;-27.442;153.014;2023-10-31T11:55:45;15.55;;;5.38;;
64915;SDS011;51427;-27.442;153.014;2023-10-31T11:58:23;16.48;;;6.15;;
64915;SDS011;51427;-27.442;153.014;2023-10-31T12:01:02;18.17;;;6.30;;
64915;SDS011;51427;-27.442;153.014;2023-10-31T12:03:37;22.00;;;6.00;;
64915;SDS011;51427;-27.442;153.014;2023-10-31T12:06:10;14.70;;;5.75;;
64915;SDS011;51427;-27.442;153.014;2023-10-31T12:08:38;15.77;;;5.90;;
64915;SDS011;51427;-27.442;153.014;2023-10-31T12:11:09;13.82;;;5.32;;
64915;SDS011;51427;-27.442;153.014;2023-10-31T12:13:38;20.98;;;6.40;;
64915;SDS011;51427;-27.442;153.014;2023-10-31T12:16:10;20.80;;;6.85;;
64915;SDS011;51427;-27.442;153.014;2023-10-31T12:18:38;14.45;;;6.07;;
64915;SDS011;51427;-27.442;153.014;2023-10-31T12:21:05;22.40;;;6.57;;
64915;SDS011;51427;-27.442;153.014;2023-10-31T12:23:34;20.30;;;7.05;;
64915;SDS011;51427;-27.442;153.014;2023-10-31T12:26:01;16.45;;;6.03;;
64915;SDS011;51427;-27.442;153.014;2023-10-31T12:28:28;17.20;;;5.97;;
64915;SDS011;51427;-27.442;153.014;2023-10-31T12:30:55;17.73;;;6.07;;
64915;SDS011;51427;-27.442;153.014;2023-10-31T12:33:27;13.05;;;5.68;;
64915;SDS011;51427;-27.442;153.014;2023-10-31T12:36:00;19.10;;;6.18;;
64915;SDS011;51427;-27.442;153.014;2023-10-31T12:38:28;17.73;;;6.47;;
64915;SDS011;51427;-27.442;153.014;2023-10-31T12:40:55;16.55;;;6.40;;
64915;SDS011;51427;-27.442;153.014;2023-10-31T12:43:24;20.73;;;6.53;;
64915;SDS011;51427;-27.442;153.014;2023-10-31T12:45:51;17.40;;;6.22;;
64915;SDS011;51427;-27.442;153.014;2023-10-31T12:48:23;17.08;;;6.53;;
64915;SDS011;51427;-27.442;153.014;2023-10-31T12:50:55;19.48;;;6.68;;
64915;SDS011;51427;-27.442;153.014;2023-10-31T12:53:35;19.33;;;7.32;;
64915;SDS011;51427;-27.442;153.014;2023-10-31T12:56:02;14.13;;;6.00;;
64915;SDS011;51427;-27.442;153.014;2023-10-31T12:58:30;13.30;;;5.97;;
64915;SDS011;51427;-27.442;153.014;2023-10-31T13:00:57;19.15;;;6.13;;
64915;SDS011;51427;-27.442;153.014;2023-10-31T13:03:25;14.90;;;6.25;;
64915;SDS011;51427;-27.442;153.014;2023-10-31T13:05:52;14.02;;;5.80;;
64915;SDS011;51427;-27.442;153.014;2023-10-31T13:08:20;16.35;;;6.00;;
64915;SDS011;51427;-27.442;153.014;2023-10-31T13:10:49;17.17;;;5.90;;
64915;SDS011;51427;-27.442;153.014;2023-10-31T13:13:18;14.25;;;5.63;;
64915;SDS011;51427;-27.442;153.014;2023-10-31T13:15:45;15.68;;;5.50;;
64915;SDS011;51427;-27.442;153.014;2023-10-31T13:18:12;14.65;;;6.40;;
64915;SDS011;51427;-27.442;153.014;2023-10-31T13:20:40;20.02;;;6.00;;
64915;SDS011;51427;-27.442;153.014;2023-10-31T13:23:07;20.35;;;6.32;;
64915;SDS011;51427;-27.442;153.014;2023-10-31T13:25:35;17.77;;;6.10;;
64915;SDS011;51427;-27.442;153.014;2023-10-31T13:28:02;14.10;;;6.07;;
64915;SDS011;51427;-27.442;153.014;2023-10-31T13:30:32;12.55;;;6.22;;
64915;SDS011;51427;-27.442;153.014;2023-10-31T13:33:00;17.08;;;5.47;;
64915;SDS011;51427;-27.442;153.014;2023-10-31T13:35:27;14.18;;;5.80;;
64915;SDS011;51427;-27.442;153.014;2023-10-31T13:37:55;13.88;;;5.85;;
64915;SDS011;51427;-27.442;153.014;2023-10-31T13:40:22;12.55;;;6.25;;
64915;SDS011;51427;-27.442;153.014;2023-10-31T13:42:49;14.75;;;5.78;;
64915;SDS011;51427;-27.442;153.014;2023-10-31T13:45:16;12.45;;;5.95;;
64915;SDS011;51427;-27.442;153.014;2023-10-31T13:47:43;16.50;;;6.47;;
64915;SDS011;51427;-27.442;153.014;2023-10-31T13:50:10;17.67;;;6.18;;
64915;SDS011;51427;-27.442;153.014;2023-10-31T13:52:38;12.88;;;5.97;;
64915;SDS011;51427;-27.442;153.014;2023-10-31T13:55:05;13.82;;;6.47;;
64915;SDS011;51427;-27.442;153.014;2023-10-31T13:57:32;17.65;;;6.32;;
64915;SDS011;51427;-27.442;153.014;2023-10-31T13:59:59;13.88;;;6.38;;
64915;SDS011;51427;-27.442;153.014;2023-10-31T14:02:26;13.60;;;6.00;;
64915;SDS011;51427;-27.442;153.014;2023-10-31T14:04:54;12.10;;;5.80;;
64915;SDS011;51427;-27.442;153.014;2023-10-31T14:07:21;17.15;;;6.57;;
64915;SDS011;51427;-27.442;153.014;2023-10-31T14:09:49;19.92;;;6.22;;
64915;SDS011;51427;-27.442;153.014;2023-10-31T14:12:18;12.85;;;6.22;;
64915;SDS011;51427;-27.442;153.014;2023-10-31T14:14:45;12.55;;;6.00;;
64915;SDS011;51427;-27.442;153.014;2023-10-31T14:17:16;14.55;;;6.13;;
64915;SDS011;51427;-27.442;153.014;2023-10-31T14:19:43;17.50;;;6.20;;
64915;SDS011;51427;-27.442;153.014;2023-10-31T14:22:13;13.60;;;6.15;;
64915;SDS011;51427;-27.442;153.014;2023-10-31T14:24:41;14.05;;;6.10;;
64915;SDS011;51427;-27.442;153.014;2023-10-31T14:27:08;15.07;;;6.97;;
64915;SDS011;51427;-27.442;153.014;2023-10-31T14:29:35;14.40;;;6.55;;
64915;SDS011;51427;-27.442;153.014;2023-10-31T14:32:06;13.82;;;7.00;;
64915;SDS011;51427;-27.442;153.014;2023-10-31T14:34:34;13.07;;;6.95;;